Time;durP1;ratioP1;P1;durP2;ratioP2;P2;SDS_P1;SDS_P2;PMS_P1;PMS_P2;Temp;Humidity;BMP_temperature;BMP_pressure;BME280_temperature;BME280_humidity;BME280_pressure;Samples;Min_cycle;Max_cycle;Signal;HPM_P1;HPM_P2
2023/02/01 00:03:55;;;;;;;6.70;2.20;;;;;;;4.59;100.00;98869.46;673323;1266;139210;-81
2023/02/01 00:19:11;;;;;;;6.70;2.80;;;;;;;4.60;100.00;98869.60;672987;1269;138357;-81
2023/02/01 00:34:16;;;;;;;9.80;2.50;;;;;;;4.75;100.00;98858.05;674109;1264;139417;-81
2023/02/01 00:49:19;;;;;;;10.70;3.60;;;;;;;4.83;100.00;98855.80;674681;1264;139529;-82
2023/02/01 01:04:23;;;;;;;8.50;2.40;;;;;;;4.85;100.00;98862.92;673924;1264;138344;-80
2023/02/01 01:19:26;;;;;;;10.70;3.70;;;;;;;4.92;100.00;98866.13;675396;1269;139681;-80
2023/02/01 01:34:29;;;;;;;12.40;2.30;;;;;;;5.04;99.95;98868.75;674940;1273;141032;-81
2023/02/01 01:49:33;;;;;;;16.90;2.50;;;;;;;5.13;99.51;98865.19;671938;1261;139030;-81
2023/02/01 02:04:36;;;;;;;22.40;3.80;;;;;;;5.20;97.80;98854.16;672956;1276;139205;-80
2023/02/01 02:19:58;;;;;;;8.80;2.50;;;;;;;5.23;97.15;98860.09;671913;1267;139295;-80
2023/02/01 02:35:07;;;;;;;11.10;2.60;;;;;;;5.20;96.54;98868.20;673893;1284;138762;-80
2023/02/01 03:05:41;;;;;;;6.50;3.30;;;;;;;5.30;94.73;98870.46;675485;1267;139928;-80
2023/02/01 03:20:49;;;;;;;10.30;2.90;;;;;;;5.29;93.53;98866.15;673283;1264;139101;-80
2023/02/01 03:36:02;;;;;;;10.50;3.20;;;;;;;5.40;92.41;98870.21;673026;1277;138267;-80
2023/02/01 03:51:08;;;;;;;12.50;4.10;;;;;;;5.38;92.77;98868.84;671899;1261;138940;-79
2023/02/01 04:06:13;;;;;;;16.40;5.30;;;;;;;5.23;93.37;98871.36;672767;1260;140032;-81
2023/02/01 04:21:17;;;;;;;20.90;8.40;;;;;;;5.31;92.45;98871.70;675031;1267;139233;-79
2023/02/01 04:36:21;;;;;;;19.70;5.50;;;;;;;5.28;90.85;98865.27;674144;1264;139318;-79
2023/02/01 04:51:25;;;;;;;28.20;6.90;;;;;;;5.27;90.26;98856.60;672102;1266;139642;-80
2023/02/01 05:06:28;;;;;;;20.10;6.00;;;;;;;5.29;90.67;98863.05;673819;1262;139765;-79
2023/02/01 05:21:31;;;;;;;17.20;5.00;;;;;;;5.22;91.26;98856.23;673804;1263;139678;-80
2023/02/01 05:36:35;;;;;;;18.00;6.90;;;;;;;5.03;94.20;98865.98;672596;1265;140273;-80
2023/02/01 05:51:39;;;;;;;21.80;8.40;;;;;;;5.06;94.67;98867.02;673677;1260;139218;-80
2023/02/01 06:06:42;;;;;;;39.60;15.90;;;;;;;5.15;94.24;98865.11;673938;1276;138911;-80
2023/02/01 06:21:45;;;;;;;16.70;5.10;;;;;;;5.21;93.06;98872.46;672089;1264;139289;-81
2023/02/01 06:36:48;;;;;;;14.80;5.90;;;;;;;5.41;92.27;98873.27;674890;1263;140802;-81
2023/02/01 06:51:52;;;;;;;25.00;10.30;;;;;;;5.44;91.07;98851.49;672683;1267;138880;-81
2023/02/01 07:06:55;;;;;;;21.70;5.50;;;;;;;5.41;93.17;98859.89;672410;1261;139109;-81
2023/02/01 07:21:58;;;;;;;24.10;6.90;;;;;;;5.31;95.20;98864.98;673962;1265;139243;-81
2023/02/01 07:37:02;;;;;;;15.20;6.30;;;;;;;5.39;94.84;98870.02;672947;1266;138497;-81
2023/02/01 07:52:05;;;;;;;32.80;11.50;;;;;;;5.50;93.33;98868.64;673225;1261;139799;-81
2023/02/01 08:07:09;;;;;;;64.10;32.70;;;;;;;5.52;93.27;98868.66;674467;1261;140207;-80
2023/02/01 08:22:12;;;;;;;22.20;6.30;;;;;;;5.66;92.24;98878.57;673867;1280;139370;-82
2023/02/01 08:37:15;;;;;;;29.20;9.40;;;;;;;5.61;92.21;98878.77;674179;1262;139566;-81
2023/02/01 08:52:18;;;;;;;27.20;7.80;;;;;;;5.67;93.21;98877.05;675074;1262;139441;-80
2023/02/01 09:07:22;;;;;;;42.40;19.30;;;;;;;5.66;94.84;98873.13;675201;1260;139041;-81
2023/02/01 09:22:25;;;;;;;22.40;7.20;;;;;;;5.73;96.66;98883.60;673874;1263;140064;-82
2023/02/01 09:37:28;;;;;;;37.20;11.60;;;;;;;5.63;97.09;98892.31;675086;1262;138499;-81
2023/02/01 09:52:45;;;;;;;31.30;9.60;;;;;;;5.80;95.62;98893.23;675459;1262;139326;-82
2023/02/01 10:07:48;;;;;;;26.30;7.70;;;;;;;6.09;94.15;98892.33;674827;1262;139004;-81
2023/02/01 10:23:34;;;;;;;35.70;13.10;;;;;;;6.39;89.63;98896.02;673036;1263;139148;-79
2023/02/01 10:38:37;;;;;;;21.30;8.10;;;;;;;6.47;86.65;98909.41;677105;1262;141104;-80
2023/02/01 10:53:53;;;;;;;23.80;8.00;;;;;;;6.57;84.36;98902.40;676335;1262;139535;-79
2023/02/01 11:09:25;;;;;;;19.80;8.30;;;;;;;6.89;82.84;98907.41;674580;1261;140544;-80
2023/02/01 11:24:38;;;;;;;132.60;45.40;;;;;;;6.89;83.42;98912.73;675058;1257;139267;-80
2023/02/01 11:39:41;;;;;;;42.70;18.00;;;;;;;7.23;83.93;98902.63;674447;1258;139347;-82
2023/02/01 11:55:08;;;;;;;28.30;9.80;;;;;;;7.22;82.70;98893.80;675424;1258;139228;-81
2023/02/01 12:10:42;;;;;;;29.70;14.80;;;;;;;7.20;83.33;98894.93;677016;1260;140982;-82
2023/02/01 12:26:23;;;;;;;44.20;16.80;;;;;;;6.77;88.97;98895.02;673999;1272;138859;-82
2023/02/01 12:41:26;;;;;;;25.50;11.70;;;;;;;6.69;91.49;98890.00;673078;1262;139952;-80
2023/02/01 12:57:02;;;;;;;26.70;10.80;;;;;;;6.75;90.27;98892.52;675773;1261;139556;-80
2023/02/01 13:12:14;;;;;;;26.00;7.90;;;;;;;7.08;87.44;98890.17;676322;1261;140038;-81
2023/02/01 13:27:18;;;;;;;18.10;6.80;;;;;;;7.36;85.32;98878.23;675745;1272;138689;-81
2023/02/01 13:42:26;;;;;;;25.50;9.50;;;;;;;7.20;86.07;98880.33;675261;1272;138817;-81
2023/02/01 13:57:39;;;;;;;61.40;24.30;;;;;;;6.83;88.40;98876.48;675475;1261;138945;-82
2023/02/01 14:12:48;;;;;;;46.60;20.60;;;;;;;6.87;88.37;98889.37;674234;1262;138939;-82
2023/02/01 14:27:53;;;;;;;84.90;28.40;;;;;;;6.72;90.89;98885.15;674359;1262;139020;-80
2023/02/01 14:42:56;;;;;;;33.30;12.40;;;;;;;6.72;92.32;98884.64;676779;1260;138640;-81
2023/02/01 14:58:05;;;;;;;34.80;13.80;;;;;;;6.67;90.97;98887.55;675906;1263;139006;-80
2023/02/01 15:13:22;;;;;;;45.90;21.30;;;;;;;6.62;91.14;98893.11;677647;1260;139207;-82
2023/02/01 15:28:26;;;;;;;17.00;7.50;;;;;;;6.63;91.94;98905.83;678752;1263;138808;-82
2023/02/01 15:43:54;;;;;;;17.20;8.30;;;;;;;6.44;92.12;98917.48;678768;1262;138760;-83
2023/02/01 15:59:00;;;;;;;12.00;6.80;;;;;;;6.15;94.39;98929.50;677375;1262;138897;-81
2023/02/01 16:14:04;;;;;;;116.10;41.50;;;;;;;6.05;95.97;98942.39;675636;1263;139300;-81
2023/02/01 16:29:08;;;;;;;18.90;8.60;;;;;;;5.81;97.42;98950.16;675379;1263;140134;-81
2023/02/01 16:44:11;;;;;;;37.80;13.40;;;;;;;5.76;99.15;98952.56;674846;1261;139342;-82
2023/02/01 16:59:14;;;;;;;25.90;12.20;;;;;;;5.80;99.44;98958.48;676028;1263;138958;-82
2023/02/01 17:14:21;;;;;;;29.10;12.30;;;;;;;5.78;99.06;98961.89;675680;1265;139266;-82
2023/02/01 17:29:25;;;;;;;22.20;9.10;;;;;;;5.90;97.15;98960.67;674438;1266;141154;-80
2023/02/01 17:44:28;;;;;;;21.80;9.50;;;;;;;5.79;95.88;98966.19;678174;1273;138981;-81
2023/02/01 17:59:32;;;;;;;20.20;8.50;;;;;;;5.88;96.14;98978.59;677960;1262;139204;-81
2023/02/01 18:14:36;;;;;;;14.60;6.90;;;;;;;5.75;94.86;98978.13;678375;1263;139056;-81
2023/02/01 18:29:39;;;;;;;24.80;10.40;;;;;;;5.82;93.44;98975.09;679480;1262;140130;-81
2023/02/01 18:44:43;;;;;;;80.40;30.60;;;;;;;5.87;93.53;98965.09;676344;1273;139935;-81
2023/02/01 18:59:46;;;;;;;31.30;13.20;;;;;;;5.98;92.16;98956.33;677096;1263;142204;-81
2023/02/01 19:14:50;;;;;;;54.00;20.70;;;;;;;5.93;91.74;98944.79;677012;1275;140280;-80
2023/02/01 19:29:54;;;;;;;15.70;5.30;;;;;;;5.87;91.59;98937.34;678957;1264;140509;-81
2023/02/01 19:44:58;;;;;;;14.10;5.60;;;;;;;5.82;91.09;98934.35;678243;1263;139721;-81
2023/02/01 20:00:04;;;;;;;25.30;8.00;;;;;;;5.74;91.63;98932.41;675792;1262;139147;-81
2023/02/01 20:15:08;;;;;;;21.10;9.50;;;;;;;5.78;91.40;98935.20;677098;1257;139391;-82
2023/02/01 20:30:18;;;;;;;15.50;5.80;;;;;;;5.78;92.35;98929.80;679529;1263;138493;-82
2023/02/01 20:45:22;;;;;;;37.50;14.60;;;;;;;5.74;93.21;98921.17;675409;1260;141102;-80
2023/02/01 21:00:26;;;;;;;78.20;17.70;;;;;;;5.63;94.53;98908.61;676933;1260;139851;-81
2023/02/01 21:15:33;;;;;;;38.10;12.40;;;;;;;5.46;96.55;98914.95;676031;1257;139272;-80
2023/02/01 21:30:38;;;;;;;34.50;12.00;;;;;;;5.28;99.11;98933.33;673180;1260;139396;-81
2023/02/01 21:45:41;;;;;;;48.70;16.20;;;;;;;5.26;100.00;98930.97;676630;1263;140185;-80
2023/02/01 22:00:53;;;;;;;28.20;9.30;;;;;;;5.33;99.93;98938.11;674090;1260;139297;-81
2023/02/01 22:15:57;;;;;;;34.80;13.00;;;;;;;5.28;100.00;98931.59;674771;1260;139565;-81
2023/02/01 22:31:02;;;;;;;30.50;10.60;;;;;;;5.39;99.78;98929.59;674685;1257;141015;-81
2023/02/01 22:46:11;;;;;;;46.10;13.10;;;;;;;5.34;100.00;98922.09;677465;1262;139241;-79
2023/02/01 23:01:15;;;;;;;29.90;11.40;;;;;;;5.43;100.00;98928.77;675049;1257;168332;-80
2023/02/01 23:16:19;;;;;;;24.10;10.60;;;;;;;5.42;100.00;98929.52;676005;1260;139387;-80
2023/02/01 23:31:29;;;;;;;39.80;13.10;;;;;;;5.45;100.00;98923.04;675368;1262;138040;-81
2023/02/01 23:46:37;;;;;;;25.40;10.00;;;;;;;5.32;100.00;98911.36;674853;1263;139422;-82
